createdAt,value
2023-11-23T00:00:48.533Z,12.67
2023-11-23T00:03:50.534Z,11.80
2023-11-23T00:06:52.810Z,11.70
2023-11-23T00:09:55.200Z,12.97
2023-11-23T00:12:57.098Z,12.50
2023-11-23T00:15:59.628Z,12.50
2023-11-23T00:19:01.571Z,12.10
2023-11-23T00:22:03.540Z,12.70
2023-11-23T00:25:13.451Z,11.40
2023-11-23T00:28:16.057Z,11.40
2023-11-23T00:31:18.460Z,12.33
2023-11-23T00:34:22.044Z,11.90
2023-11-23T00:37:24.100Z,11.43
2023-11-23T00:40:26.367Z,12.77
2023-11-23T00:43:28.327Z,11.30
2023-11-23T00:46:30.394Z,11.83
2023-11-23T00:49:32.295Z,11.93
2023-11-23T00:52:34.267Z,11.97
2023-11-23T00:55:38.043Z,12.00
2023-11-23T00:58:40.186Z,10.90
2023-11-23T01:01:42.348Z,11.63
2023-11-23T01:04:45.216Z,12.10
2023-11-23T01:07:47.165Z,10.73
2023-11-23T01:10:49.179Z,11.97
2023-11-23T01:13:51.753Z,11.80
2023-11-23T01:16:53.848Z,11.07
2023-11-23T01:19:55.915Z,11.10
2023-11-23T01:22:57.872Z,10.73
2023-11-23T01:26:00.108Z,10.33
2023-11-23T01:29:03.165Z,10.93
2023-11-23T01:32:05.416Z,9.97
2023-11-23T01:35:09.517Z,10.20
2023-11-23T01:38:11.855Z,9.57
2023-11-23T01:41:13.995Z,9.53
2023-11-23T01:44:15.880Z,9.00
2023-11-23T01:47:18.185Z,9.13
2023-11-23T01:50:21.210Z,9.40
2023-11-23T01:53:23.746Z,8.33
2023-11-23T01:56:27.306Z,7.77
2023-11-23T01:59:29.908Z,8.40
2023-11-23T02:02:32.381Z,7.97
2023-11-23T02:05:34.762Z,7.93
2023-11-23T02:08:37.541Z,8.40
2023-11-23T02:11:40.184Z,7.70
2023-11-23T02:14:43.205Z,8.23
2023-11-23T02:17:46.092Z,8.80
2023-11-23T02:20:48.196Z,8.40
2023-11-23T02:23:50.444Z,8.17
2023-11-23T02:26:52.398Z,7.97
2023-11-23T02:29:54.504Z,8.70
2023-11-23T02:32:57.532Z,8.23
2023-11-23T02:36:00.447Z,7.63
2023-11-23T02:39:02.398Z,7.60
2023-11-23T02:42:05.215Z,7.03
2023-11-23T02:45:09.271Z,7.23
2023-11-23T02:48:11.380Z,7.80
2023-11-23T02:51:15.957Z,8.67
2023-11-23T02:54:18.477Z,7.70
2023-11-23T02:57:20.693Z,7.37
2023-11-23T03:00:23.469Z,8.00
2023-11-23T03:03:25.900Z,7.90
2023-11-23T03:06:31.125Z,8.23
2023-11-23T03:09:34.283Z,7.50
2023-11-23T03:12:36.283Z,7.77
2023-11-23T03:15:38.312Z,7.30
2023-11-23T03:18:40.885Z,7.97
2023-11-23T03:21:43.200Z,7.93
2023-11-23T03:24:45.357Z,7.57
2023-11-23T03:27:47.300Z,7.33
2023-11-23T03:30:49.353Z,7.87
2023-11-23T03:33:51.271Z,7.20
2023-11-23T03:36:53.757Z,7.33
2023-11-23T03:39:56.660Z,7.00
2023-11-23T03:42:58.611Z,7.77
2023-11-23T03:46:00.854Z,8.13
2023-11-23T03:49:02.816Z,7.43
2023-11-23T03:52:05.101Z,7.73
2023-11-23T03:55:07.678Z,8.03
2023-11-23T03:58:09.705Z,7.93
2023-11-23T04:01:12.632Z,7.27
2023-11-23T04:04:15.006Z,8.07
2023-11-23T04:07:16.985Z,7.70
2023-11-23T04:10:19.378Z,6.90
2023-11-23T04:13:23.051Z,7.33
2023-11-23T04:16:25.047Z,6.90
2023-11-23T04:19:27.025Z,6.83
2023-11-23T04:22:29.721Z,5.93
2023-11-23T04:25:32.007Z,7.00
2023-11-23T04:28:36.676Z,6.70
2023-11-23T04:31:38.667Z,7.00
2023-11-23T04:34:40.811Z,6.80
2023-11-23T04:37:43.224Z,7.47
2023-11-23T04:40:45.642Z,8.20
2023-11-23T04:43:47.890Z,7.63
2023-11-23T04:46:50.502Z,8.30
2023-11-23T04:49:52.629Z,8.90
2023-11-23T04:52:54.665Z,8.70
2023-11-23T04:55:56.664Z,8.07
2023-11-23T04:58:58.846Z,8.40
2023-11-23T05:02:00.928Z,8.10
2023-11-23T05:05:02.917Z,8.37
2023-11-23T05:08:05.556Z,9.00
2023-11-23T05:11:08.330Z,8.63
2023-11-23T05:14:10.724Z,8.33
2023-11-23T05:17:12.762Z,8.07
2023-11-23T05:20:15.259Z,7.00
2023-11-23T05:23:17.307Z,9.07
2023-11-23T05:26:19.577Z,8.57
2023-11-23T05:29:21.581Z,8.43
2023-11-23T05:32:23.595Z,7.90
2023-11-23T05:35:25.654Z,6.03
2023-11-23T05:38:27.621Z,7.87
2023-11-23T05:41:29.547Z,7.43
2023-11-23T05:44:32.154Z,6.43
2023-11-23T05:47:34.145Z,6.17
2023-11-23T05:50:36.659Z,6.07
2023-11-23T05:53:38.549Z,4.73
2023-11-23T05:56:41.104Z,6.17
2023-11-23T05:59:43.045Z,6.30
2023-11-23T06:02:45.080Z,7.13
2023-11-23T06:05:47.049Z,7.47
2023-11-23T06:08:49.955Z,8.20
2023-11-23T06:11:51.968Z,7.17
2023-11-23T06:14:54.359Z,6.50
2023-11-23T06:18:07.445Z,6.67
2023-11-23T06:21:15.914Z,6.47
2023-11-23T06:24:20.606Z,6.47
2023-11-23T06:27:23.134Z,4.90
2023-11-23T06:30:25.136Z,6.67
2023-11-23T06:33:28.848Z,6.43
2023-11-23T06:36:31.316Z,7.20
2023-11-23T06:39:37.316Z,5.83
2023-11-23T06:42:39.467Z,6.43
2023-11-23T06:45:41.488Z,6.57
2023-11-23T06:48:45.685Z,5.70
2023-11-23T06:51:47.817Z,5.63
2023-11-23T06:54:50.257Z,6.27
2023-11-23T06:57:52.235Z,6.30
2023-11-23T07:00:54.162Z,6.27
2023-11-23T07:03:57.015Z,6.73
2023-11-23T07:06:59.083Z,7.23
2023-11-23T07:10:01.213Z,7.70
2023-11-23T07:13:05.278Z,8.53
2023-11-23T07:16:07.715Z,9.33
2023-11-23T07:19:09.682Z,8.40
2023-11-23T07:22:11.682Z,7.87
2023-11-23T07:25:14.952Z,8.60
2023-11-23T07:28:18.234Z,8.23
2023-11-23T07:31:20.307Z,8.27
2023-11-23T07:34:22.823Z,8.03
2023-11-23T07:37:24.772Z,8.23
2023-11-23T07:40:26.721Z,7.23
2023-11-23T07:43:29.108Z,7.80
2023-11-23T07:46:31.152Z,7.53
2023-11-23T07:49:33.131Z,8.33
2023-11-23T07:52:35.098Z,7.40
2023-11-23T07:55:38.361Z,7.00
2023-11-23T07:58:40.647Z,7.30
2023-11-23T08:01:42.753Z,6.40
2023-11-23T08:04:46.206Z,6.47
2023-11-23T08:07:48.684Z,6.83
2023-11-23T08:10:52.211Z,7.37
2023-11-23T08:13:56.640Z,6.77
2023-11-23T08:16:58.756Z,7.53
2023-11-23T08:20:00.641Z,8.30
2023-11-23T08:23:03.327Z,8.53
2023-11-23T08:26:07.373Z,8.43
2023-11-23T08:29:11.100Z,8.00
2023-11-23T08:32:17.120Z,7.33
2023-11-23T08:35:19.611Z,6.97
2023-11-23T08:38:21.527Z,6.53
2023-11-23T08:41:26.496Z,8.03
2023-11-23T08:44:29.067Z,7.40
2023-11-23T08:47:31.600Z,8.73
2023-11-23T08:50:33.676Z,8.23
2023-11-23T08:53:36.277Z,7.60
2023-11-23T08:56:38.298Z,7.47
2023-11-23T08:59:41.682Z,7.90
2023-11-23T09:02:45.059Z,7.20
2023-11-23T09:05:47.108Z,7.53
2023-11-23T09:08:50.148Z,6.73
2023-11-23T09:11:52.380Z,5.63
2023-11-23T09:14:58.348Z,6.13
2023-11-23T09:18:00.513Z,4.90
2023-11-23T09:21:02.827Z,4.60
2023-11-23T09:24:07.159Z,4.97
2023-11-23T09:27:11.086Z,5.87
2023-11-23T09:30:14.020Z,4.53
2023-11-23T09:33:18.139Z,4.83
2023-11-23T09:36:22.022Z,5.03
2023-11-23T09:39:24.966Z,4.63
2023-11-23T09:42:30.899Z,5.23
2023-11-23T09:45:33.255Z,4.23
2023-11-23T09:48:40.093Z,4.77
2023-11-23T09:51:43.080Z,4.23
2023-11-23T09:54:46.190Z,4.60
2023-11-23T09:57:51.600Z,5.20
2023-11-23T10:00:54.072Z,5.30
2023-11-23T10:03:56.407Z,4.53
2023-11-23T10:06:59.409Z,4.77
2023-11-23T10:10:03.188Z,3.73
2023-11-23T10:13:07.077Z,3.73
2023-11-23T10:16:12.628Z,3.97
2023-11-23T10:19:24.292Z,4.27
2023-11-23T10:22:27.015Z,5.07
2023-11-23T10:25:33.788Z,5.37
2023-11-23T10:28:38.245Z,4.53
2023-11-23T10:31:40.407Z,4.27
2023-11-23T10:34:43.908Z,4.40
2023-11-23T10:37:46.808Z,3.97
2023-11-23T10:40:48.791Z,2.80
2023-11-23T10:43:51.775Z,2.90
2023-11-23T10:47:00.025Z,1.80
2023-11-23T10:50:02.365Z,1.60
2023-11-23T10:53:04.751Z,1.80
2023-11-23T10:56:19.162Z,1.63
2023-11-23T10:59:22.471Z,1.90
2023-11-23T11:02:25.056Z,2.70
2023-11-23T11:05:50.190Z,2.60
2023-11-23T11:08:52.667Z,3.07
2023-11-23T11:11:56.879Z,2.53
2023-11-23T11:15:04.826Z,2.77
2023-11-23T11:18:09.600Z,3.10
2023-11-23T11:21:17.691Z,2.97
2023-11-23T11:24:20.554Z,2.60
2023-11-23T11:27:23.151Z,1.97
2023-11-23T11:30:26.136Z,1.40
2023-11-23T11:33:28.549Z,1.43
2023-11-23T11:36:32.419Z,1.27
2023-11-23T11:39:41.063Z,1.07
2023-11-23T11:42:43.429Z,1.43
2023-11-23T11:45:45.439Z,1.20
2023-11-23T11:48:47.871Z,0.87
2023-11-23T11:51:49.899Z,1.30
2023-11-23T11:54:52.401Z,1.13
2023-11-23T11:57:57.034Z,1.13
2023-11-23T12:00:59.097Z,1.10
2023-11-23T12:04:03.035Z,1.10
2023-11-23T12:07:13.447Z,1.03
2023-11-23T12:10:15.502Z,0.93
2023-11-23T12:13:26.775Z,0.77
2023-11-23T12:16:36.741Z,0.97
2023-11-23T12:19:39.451Z,0.83
2023-11-23T12:22:42.022Z,1.23
2023-11-23T12:25:44.117Z,0.93
2023-11-23T12:28:48.966Z,1.10
2023-11-23T12:31:51.844Z,1.33
2023-11-23T12:34:54.049Z,1.30
2023-11-23T12:37:56.802Z,1.50
2023-11-23T12:40:59.046Z,1.40
2023-11-23T12:44:01.150Z,1.23
2023-11-23T12:47:05.295Z,1.30
2023-11-23T12:50:11.734Z,1.20
2023-11-23T12:53:13.993Z,1.33
2023-11-23T12:56:16.015Z,1.50
2023-11-23T12:59:18.418Z,1.30
2023-11-23T13:02:20.635Z,1.67
2023-11-23T13:05:23.875Z,1.63
2023-11-23T13:08:25.982Z,1.20
2023-11-23T13:11:28.190Z,1.10
2023-11-23T13:14:30.322Z,1.17
2023-11-23T13:17:33.786Z,1.20
2023-11-23T13:20:35.961Z,0.93
2023-11-23T13:23:38.974Z,1.03
2023-11-23T13:26:41.378Z,1.10
2023-11-23T13:29:44.560Z,1.03
2023-11-23T13:32:47.733Z,1.30
2023-11-23T13:35:50.663Z,0.87
2023-11-23T13:38:52.757Z,0.90
2023-11-23T13:41:55.252Z,1.10
2023-11-23T13:44:58.303Z,1.17
2023-11-23T13:48:00.968Z,1.00
2023-11-23T13:51:03.031Z,1.00
2023-11-23T13:54:10.163Z,1.10
2023-11-23T13:57:14.287Z,0.80
2023-11-23T14:00:24.130Z,1.07
2023-11-23T14:03:27.947Z,1.27
2023-11-23T14:06:32.052Z,1.10
2023-11-23T14:09:34.079Z,1.30
2023-11-23T14:12:36.600Z,1.30
2023-11-23T14:15:40.051Z,1.60
2023-11-23T14:18:43.420Z,1.67
2023-11-23T14:21:51.247Z,1.27
2023-11-23T14:24:55.248Z,1.33
2023-11-23T14:27:57.598Z,1.73
2023-11-23T14:31:00.552Z,1.60
2023-11-23T14:34:03.233Z,1.37
2023-11-23T14:37:06.925Z,1.70
2023-11-23T14:40:16.468Z,1.80
2023-11-23T14:43:20.135Z,1.80
2023-11-23T14:46:22.848Z,1.90
2023-11-23T14:49:26.010Z,2.07
2023-11-23T14:52:28.618Z,2.13
2023-11-23T14:55:31.502Z,2.00
2023-11-23T14:58:33.976Z,2.27
2023-11-23T15:01:37.198Z,2.17
2023-11-23T15:04:40.159Z,2.20
2023-11-23T15:07:42.104Z,2.50
2023-11-23T15:10:46.064Z,2.83
2023-11-23T15:13:49.136Z,2.90
2023-11-23T15:16:52.982Z,2.27
2023-11-23T15:19:55.572Z,2.70
2023-11-23T15:22:58.096Z,3.00
2023-11-23T15:26:00.226Z,2.27
2023-11-23T15:29:05.932Z,2.87
2023-11-23T15:32:08.662Z,3.10
2023-11-23T15:35:14.198Z,2.73
2023-11-23T15:38:16.558Z,2.90
2023-11-23T15:41:18.975Z,2.70
2023-11-23T15:44:21.771Z,2.87
2023-11-23T15:47:24.559Z,2.53
2023-11-23T15:50:29.408Z,2.53
2023-11-23T15:53:33.176Z,2.80
2023-11-23T15:56:35.170Z,3.13
2023-11-23T15:59:37.700Z,2.40
2023-11-23T16:02:48.983Z,2.73
2023-11-23T16:05:51.720Z,3.27
2023-11-23T16:08:57.070Z,3.00
2023-11-23T16:12:00.426Z,3.40
2023-11-23T16:15:02.906Z,3.87
2023-11-23T16:18:05.011Z,3.77
2023-11-23T16:21:07.797Z,3.30
2023-11-23T16:24:11.917Z,3.40
2023-11-23T16:27:14.940Z,2.90
2023-11-23T16:30:17.097Z,2.50
2023-11-23T16:33:21.935Z,3.50
2023-11-23T16:36:33.301Z,3.83
2023-11-23T16:39:41.080Z,3.90
2023-11-23T16:42:43.573Z,4.83
2023-11-23T16:45:47.025Z,4.27
2023-11-23T16:48:49.095Z,3.40
2023-11-23T16:51:52.174Z,3.70
2023-11-23T16:54:54.206Z,3.40
2023-11-23T16:57:56.397Z,2.87
2023-11-23T17:00:58.788Z,4.93
2023-11-23T17:04:01.993Z,4.80
2023-11-23T17:07:05.122Z,3.27
2023-11-23T17:10:13.781Z,3.37
2023-11-23T17:13:15.674Z,3.23
2023-11-23T17:16:18.213Z,2.80
2023-11-23T17:19:22.574Z,2.43
2023-11-23T17:22:25.301Z,3.50
2023-11-23T17:25:27.173Z,2.73
2023-11-23T17:28:29.317Z,3.10
2023-11-23T17:31:32.631Z,3.50
2023-11-23T17:34:36.351Z,2.67
2023-11-23T17:37:39.107Z,3.20
2023-11-23T17:40:42.908Z,3.50
2023-11-23T17:43:48.962Z,3.30
2023-11-23T17:46:52.125Z,4.23
2023-11-23T17:50:00.822Z,4.47
2023-11-23T17:53:07.023Z,4.87
2023-11-23T17:56:10.918Z,3.70
2023-11-23T17:59:25.768Z,3.10
2023-11-23T18:02:36.252Z,6.90
2023-11-23T18:05:40.448Z,3.70
2023-11-23T18:08:42.495Z,2.80
2023-11-23T18:11:45.212Z,2.93
2023-11-23T18:14:47.181Z,3.00
2023-11-23T18:17:50.994Z,2.97
2023-11-23T18:20:54.879Z,2.83
2023-11-23T18:23:58.191Z,3.40
2023-11-23T18:27:06.465Z,2.30
2023-11-23T18:30:09.569Z,2.77
2023-11-23T18:33:12.116Z,3.20
2023-11-23T18:36:14.325Z,3.40
2023-11-23T18:39:21.822Z,2.93
2023-11-23T18:42:25.183Z,3.80
2023-11-23T18:45:27.678Z,3.27
2023-11-23T18:48:30.848Z,3.20
2023-11-23T18:51:32.971Z,3.40
2023-11-23T18:54:35.584Z,3.10
2023-11-23T18:57:38.326Z,3.13
2023-11-23T19:00:41.298Z,2.97
2023-11-23T19:03:44.393Z,3.30
2023-11-23T19:06:46.829Z,3.00
2023-11-23T19:09:49.085Z,2.67
2023-11-23T19:12:56.356Z,2.80
2023-11-23T19:16:03.500Z,3.40
2023-11-23T19:19:05.864Z,3.53
2023-11-23T19:22:08.961Z,2.83
2023-11-23T19:25:13.630Z,2.70
2023-11-23T19:28:16.804Z,3.20
2023-11-23T19:31:19.822Z,2.70
2023-11-23T19:34:23.792Z,4.10
2023-11-23T19:37:26.989Z,3.90
2023-11-23T19:40:29.102Z,3.40
2023-11-23T19:43:32.188Z,2.70
2023-11-23T19:46:36.292Z,3.00
2023-11-23T19:49:39.839Z,3.10
2023-11-23T19:52:43.764Z,2.87
2023-11-23T19:55:46.191Z,3.03
2023-11-23T19:58:48.127Z,3.40
2023-11-23T20:01:50.872Z,3.60
2023-11-23T20:04:52.940Z,3.13
2023-11-23T20:07:55.860Z,2.90
2023-11-23T20:10:57.749Z,2.93
2023-11-23T20:14:02.636Z,3.13
2023-11-23T20:17:06.383Z,3.30
2023-11-23T20:20:11.382Z,3.27
2023-11-23T20:23:13.930Z,3.50
2023-11-23T20:26:15.958Z,4.23
2023-11-23T20:29:18.248Z,3.60
2023-11-23T20:32:20.337Z,3.10
2023-11-23T20:35:23.772Z,2.83
2023-11-23T20:38:25.777Z,3.73
2023-11-23T20:41:28.807Z,3.23
2023-11-23T20:44:30.801Z,3.17
2023-11-23T20:47:32.813Z,4.33
2023-11-23T20:50:34.899Z,3.37
2023-11-23T20:53:36.811Z,5.50
2023-11-23T20:56:39.644Z,4.00
2023-11-23T20:59:41.932Z,4.50
2023-11-23T21:02:45.484Z,2.90
2023-11-23T21:05:48.139Z,3.90
2023-11-23T21:08:51.261Z,3.57
2023-11-23T21:11:56.276Z,3.87
2023-11-23T21:14:58.276Z,3.60
2023-11-23T21:18:00.472Z,3.43
2023-11-23T21:21:02.565Z,3.43
2023-11-23T21:24:07.411Z,3.17
2023-11-23T21:27:09.444Z,3.10
2023-11-23T21:30:12.039Z,3.63
2023-11-23T21:33:14.896Z,2.80
2023-11-23T21:36:17.025Z,4.10
2023-11-23T21:39:24.874Z,3.30
2023-11-23T21:42:27.205Z,3.40
2023-11-23T21:45:29.857Z,4.03
2023-11-23T21:48:31.837Z,3.43
2023-11-23T21:51:34.413Z,3.80
2023-11-23T21:54:40.742Z,3.47
2023-11-23T21:57:46.359Z,2.97
2023-11-23T22:00:48.491Z,5.10
2023-11-23T22:03:51.869Z,3.13
2023-11-23T22:06:53.993Z,2.80
2023-11-23T22:09:56.040Z,3.30
2023-11-23T22:12:58.077Z,3.17
2023-11-23T22:16:00.450Z,2.80
2023-11-23T22:19:02.622Z,4.20
2023-11-23T22:22:05.483Z,4.60
2023-11-23T22:25:08.445Z,4.30
2023-11-23T22:28:11.590Z,5.43
2023-11-23T22:31:15.555Z,5.10
2023-11-23T22:34:17.941Z,4.27
2023-11-23T22:37:20.533Z,3.93
2023-11-23T22:40:22.804Z,3.67
2023-11-23T22:43:25.774Z,2.83
2023-11-23T22:46:28.142Z,2.70
2023-11-23T22:49:30.129Z,2.80
2023-11-23T22:52:32.027Z,2.93
2023-11-23T22:55:34.001Z,2.97
2023-11-23T22:58:37.104Z,3.10
2023-11-23T23:01:39.160Z,2.67
2023-11-23T23:04:41.745Z,2.50
2023-11-23T23:07:43.786Z,2.23
2023-11-23T23:10:46.417Z,3.20
2023-11-23T23:13:48.430Z,3.63
2023-11-23T23:16:50.570Z,4.50
2023-11-23T23:19:52.498Z,3.87
2023-11-23T23:22:55.596Z,6.73
2023-11-23T23:25:57.556Z,4.23
2023-11-23T23:28:59.727Z,4.07
2023-11-23T23:32:01.695Z,4.37
2023-11-23T23:35:06.759Z,4.03
2023-11-23T23:38:08.673Z,3.87
2023-11-23T23:41:10.788Z,2.60
2023-11-23T23:44:12.833Z,3.30
2023-11-23T23:47:14.981Z,3.97
2023-11-23T23:50:16.957Z,3.80
2023-11-23T23:53:20.368Z,3.60
2023-11-23T23:56:23.673Z,3.03
2023-11-23T23:59:25.654Z,4.10
